sensor_id;sensor_type;location;lat;lon;timestamp;temperature;humidity
9410;DHT22;4744;52.576;13.568;2023-09-30T00:00:00;16.70;1.00
9410;DHT22;4744;52.576;13.568;2023-09-30T00:02:28;16.70;1.00
9410;DHT22;4744;52.576;13.568;2023-09-30T00:04:55;16.70;1.00
9410;DHT22;4744;52.576;13.568;2023-09-30T00:07:22;16.70;1.00
9410;DHT22;4744;52.576;13.568;2023-09-30T00:09:49;16.70;1.00
9410;DHT22;4744;52.576;13.568;2023-09-30T00:12:17;16.70;1.00
9410;DHT22;4744;52.576;13.568;2023-09-30T00:14:46;16.70;1.00
9410;DHT22;4744;52.576;13.568;2023-09-30T00:17:13;16.70;1.00
9410;DHT22;4744;52.576;13.568;2023-09-30T00:19:40;16.60;1.00
9410;DHT22;4744;52.576;13.568;2023-09-30T00:22:07;16.60;1.00
9410;DHT22;4744;52.576;13.568;2023-09-30T00:24:34;16.60;1.00
9410;DHT22;4744;52.576;13.568;2023-09-30T00:27:01;16.50;1.00
9410;DHT22;4744;52.576;13.568;2023-09-30T00:29:28;16.40;1.00
9410;DHT22;4744;52.576;13.568;2023-09-30T00:31:56;16.30;1.00
9410;DHT22;4744;52.576;13.568;2023-09-30T00:34:23;16.30;1.00
9410;DHT22;4744;52.576;13.568;2023-09-30T00:36:50;16.20;1.00
9410;DHT22;4744;52.576;13.568;2023-09-30T00:39:17;16.20;1.00
9410;DHT22;4744;52.576;13.568;2023-09-30T00:41:44;16.10;1.00
9410;DHT22;4744;52.576;13.568;2023-09-30T00:44:11;16.00;1.00
9410;DHT22;4744;52.576;13.568;2023-09-30T00:46:39;16.00;1.00
9410;DHT22;4744;52.576;13.568;2023-09-30T00:49:10;15.90;1.00
9410;DHT22;4744;52.576;13.568;2023-09-30T00:51:40;15.90;1.00
9410;DHT22;4744;52.576;13.568;2023-09-30T00:54:07;15.80;1.00
9410;DHT22;4744;52.576;13.568;2023-09-30T00:56:36;15.80;1.00
9410;DHT22;4744;52.576;13.568;2023-09-30T00:59:04;15.70;1.00
9410;DHT22;4744;52.576;13.568;2023-09-30T01:01:31;15.60;1.00
9410;DHT22;4744;52.576;13.568;2023-09-30T01:03:59;15.60;1.00
9410;DHT22;4744;52.576;13.568;2023-09-30T01:06:28;15.60;1.00
9410;DHT22;4744;52.576;13.568;2023-09-30T01:08:55;15.50;1.00
9410;DHT22;4744;52.576;13.568;2023-09-30T01:11:22;15.50;1.00
9410;DHT22;4744;52.576;13.568;2023-09-30T01:13:49;15.40;1.00
9410;DHT22;4744;52.576;13.568;2023-09-30T01:16:16;15.30;1.00
9410;DHT22;4744;52.576;13.568;2023-09-30T01:18:43;15.20;1.00
9410;DHT22;4744;52.576;13.568;2023-09-30T01:21:10;15.10;1.00
9410;DHT22;4744;52.576;13.568;2023-09-30T01:23:39;15.10;1.00
9410;DHT22;4744;52.576;13.568;2023-09-30T01:26:09;15.00;1.00
9410;DHT22;4744;52.576;13.568;2023-09-30T01:28:36;14.90;1.00
9410;DHT22;4744;52.576;13.568;2023-09-30T01:31:03;14.80;1.00
9410;DHT22;4744;52.576;13.568;2023-09-30T01:33:31;14.80;1.00
9410;DHT22;4744;52.576;13.568;2023-09-30T01:35:58;14.70;1.00
9410;DHT22;4744;52.576;13.568;2023-09-30T01:38:26;14.70;1.00
9410;DHT22;4744;52.576;13.568;2023-09-30T01:40:54;14.60;1.00
9410;DHT22;4744;52.576;13.568;2023-09-30T01:43:21;14.50;1.00
9410;DHT22;4744;52.576;13.568;2023-09-30T01:45:48;14.50;1.00
9410;DHT22;4744;52.576;13.568;2023-09-30T01:48:15;14.40;1.00
9410;DHT22;4744;52.576;13.568;2023-09-30T01:50:42;14.40;1.00
9410;DHT22;4744;52.576;13.568;2023-09-30T01:53:09;14.40;1.00
9410;DHT22;4744;52.576;13.568;2023-09-30T01:55:36;14.40;1.00
9410;DHT22;4744;52.576;13.568;2023-09-30T01:58:04;14.40;1.00
9410;DHT22;4744;52.576;13.568;2023-09-30T02:00:31;14.30;1.00
9410;DHT22;4744;52.576;13.568;2023-09-30T02:02:58;14.30;1.00
9410;DHT22;4744;52.576;13.568;2023-09-30T02:05:26;14.30;1.00
9410;DHT22;4744;52.576;13.568;2023-09-30T02:07:53;14.20;1.00
9410;DHT22;4744;52.576;13.568;2023-09-30T02:10:21;14.20;1.00
9410;DHT22;4744;52.576;13.568;2023-09-30T02:12:48;14.20;1.00
9410;DHT22;4744;52.576;13.568;2023-09-30T02:15:16;14.20;1.00
9410;DHT22;4744;52.576;13.568;2023-09-30T02:17:43;14.10;1.00
9410;DHT22;4744;52.576;13.568;2023-09-30T02:20:12;14.10;1.00
9410;DHT22;4744;52.576;13.568;2023-09-30T02:22:42;14.10;1.00
9410;DHT22;4744;52.576;13.568;2023-09-30T02:25:10;14.00;1.00
9410;DHT22;4744;52.576;13.568;2023-09-30T02:27:39;14.00;1.00
9410;DHT22;4744;52.576;13.568;2023-09-30T02:30:08;14.00;1.00
9410;DHT22;4744;52.576;13.568;2023-09-30T02:32:37;13.90;1.00
9410;DHT22;4744;52.576;13.568;2023-09-30T02:35:05;13.90;1.00
9410;DHT22;4744;52.576;13.568;2023-09-30T02:37:33;13.80;1.00
9410;DHT22;4744;52.576;13.568;2023-09-30T02:40:02;13.80;1.00
9410;DHT22;4744;52.576;13.568;2023-09-30T02:42:31;13.80;1.00
9410;DHT22;4744;52.576;13.568;2023-09-30T02:44:59;13.70;1.00
9410;DHT22;4744;52.576;13.568;2023-09-30T02:47:27;13.70;1.00
9410;DHT22;4744;52.576;13.568;2023-09-30T02:49:57;13.70;1.00
9410;DHT22;4744;52.576;13.568;2023-09-30T02:52:24;13.70;1.00
9410;DHT22;4744;52.576;13.568;2023-09-30T02:54:51;13.60;1.00
9410;DHT22;4744;52.576;13.568;2023-09-30T02:57:18;13.60;1.00
9410;DHT22;4744;52.576;13.568;2023-09-30T02:59:47;13.60;1.00
9410;DHT22;4744;52.576;13.568;2023-09-30T03:02:14;13.50;1.00
9410;DHT22;4744;52.576;13.568;2023-09-30T03:04:44;13.50;1.00
9410;DHT22;4744;52.576;13.568;2023-09-30T03:07:18;13.50;1.00
9410;DHT22;4744;52.576;13.568;2023-09-30T03:09:45;13.50;1.00
9410;DHT22;4744;52.576;13.568;2023-09-30T03:12:12;13.50;1.00
9410;DHT22;4744;52.576;13.568;2023-09-30T03:14:39;13.50;1.00
9410;DHT22;4744;52.576;13.568;2023-09-30T03:17:06;13.40;1.00
9410;DHT22;4744;52.576;13.568;2023-09-30T03:19:37;13.40;1.00
9410;DHT22;4744;52.576;13.568;2023-09-30T03:22:04;13.40;1.00
9410;DHT22;4744;52.576;13.568;2023-09-30T03:24:38;13.40;1.00
9410;DHT22;4744;52.576;13.568;2023-09-30T03:27:05;13.40;1.00
9410;DHT22;4744;52.576;13.568;2023-09-30T03:29:33;13.30;1.00
9410;DHT22;4744;52.576;13.568;2023-09-30T03:32:04;13.30;1.00
9410;DHT22;4744;52.576;13.568;2023-09-30T03:34:31;13.30;1.00
9410;DHT22;4744;52.576;13.568;2023-09-30T03:36:58;13.30;1.00
9410;DHT22;4744;52.576;13.568;2023-09-30T03:39:25;13.30;1.00
9410;DHT22;4744;52.576;13.568;2023-09-30T03:41:55;13.30;1.00
9410;DHT22;4744;52.576;13.568;2023-09-30T03:44:23;13.30;1.00
9410;DHT22;4744;52.576;13.568;2023-09-30T03:46:50;13.30;1.00
9410;DHT22;4744;52.576;13.568;2023-09-30T03:49:17;13.30;1.00
9410;DHT22;4744;52.576;13.568;2023-09-30T03:51:45;13.20;1.00
9410;DHT22;4744;52.576;13.568;2023-09-30T03:54:12;13.20;1.00
9410;DHT22;4744;52.576;13.568;2023-09-30T03:56:39;13.20;1.00
9410;DHT22;4744;52.576;13.568;2023-09-30T03:59:08;13.20;1.00
9410;DHT22;4744;52.576;13.568;2023-09-30T04:01:35;13.20;1.00
9410;DHT22;4744;52.576;13.568;2023-09-30T04:04:06;13.10;1.00
9410;DHT22;4744;52.576;13.568;2023-09-30T04:06:35;13.10;1.00
9410;DHT22;4744;52.576;13.568;2023-09-30T04:09:03;13.10;1.00
9410;DHT22;4744;52.576;13.568;2023-09-30T04:11:35;13.10;1.00
9410;DHT22;4744;52.576;13.568;2023-09-30T04:14:03;13.10;1.00
9410;DHT22;4744;52.576;13.568;2023-09-30T04:16:31;13.10;1.00
9410;DHT22;4744;52.576;13.568;2023-09-30T04:18:58;13.00;1.00
9410;DHT22;4744;52.576;13.568;2023-09-30T04:21:25;13.00;1.00
9410;DHT22;4744;52.576;13.568;2023-09-30T04:23:54;13.10;1.00
9410;DHT22;4744;52.576;13.568;2023-09-30T04:26:22;13.10;1.00
9410;DHT22;4744;52.576;13.568;2023-09-30T04:28:48;13.00;1.00
9410;DHT22;4744;52.576;13.568;2023-09-30T04:31:15;13.00;1.00
9410;DHT22;4744;52.576;13.568;2023-09-30T04:33:45;13.00;1.00
9410;DHT22;4744;52.576;13.568;2023-09-30T04:36:12;13.00;1.00
9410;DHT22;4744;52.576;13.568;2023-09-30T04:38:39;13.00;1.00
9410;DHT22;4744;52.576;13.568;2023-09-30T04:41:06;13.00;1.00
9410;DHT22;4744;52.576;13.568;2023-09-30T04:43:34;12.90;1.00
9410;DHT22;4744;52.576;13.568;2023-09-30T04:46:03;12.90;1.00
9410;DHT22;4744;52.576;13.568;2023-09-30T04:48:32;12.90;1.00
9410;DHT22;4744;52.576;13.568;2023-09-30T04:51:01;12.90;1.00
9410;DHT22;4744;52.576;13.568;2023-09-30T04:53:30;12.90;1.00
9410;DHT22;4744;52.576;13.568;2023-09-30T04:55:59;12.90;1.00
9410;DHT22;4744;52.576;13.568;2023-09-30T04:58:27;12.90;1.00
9410;DHT22;4744;52.576;13.568;2023-09-30T05:00:55;12.90;1.00
9410;DHT22;4744;52.576;13.568;2023-09-30T05:03:21;12.80;1.00
9410;DHT22;4744;52.576;13.568;2023-09-30T05:05:50;12.80;1.00
9410;DHT22;4744;52.576;13.568;2023-09-30T05:08:20;12.80;1.00
9410;DHT22;4744;52.576;13.568;2023-09-30T05:10:47;12.80;1.00
9410;DHT22;4744;52.576;13.568;2023-09-30T05:13:13;12.80;1.00
9410;DHT22;4744;52.576;13.568;2023-09-30T05:15:40;12.70;1.00
9410;DHT22;4744;52.576;13.568;2023-09-30T05:18:08;12.70;1.00
9410;DHT22;4744;52.576;13.568;2023-09-30T05:20:35;12.70;1.00
9410;DHT22;4744;52.576;13.568;2023-09-30T05:23:04;12.70;1.00
9410;DHT22;4744;52.576;13.568;2023-09-30T05:25:33;12.70;1.00
9410;DHT22;4744;52.576;13.568;2023-09-30T05:28:02;12.70;1.00
9410;DHT22;4744;52.576;13.568;2023-09-30T05:30:29;12.70;1.00
9410;DHT22;4744;52.576;13.568;2023-09-30T05:32:56;12.70;1.00
9410;DHT22;4744;52.576;13.568;2023-09-30T05:35:24;12.70;1.00
9410;DHT22;4744;52.576;13.568;2023-09-30T05:37:54;12.80;1.00
9410;DHT22;4744;52.576;13.568;2023-09-30T05:40:21;12.80;1.00
9410;DHT22;4744;52.576;13.568;2023-09-30T05:42:55;12.80;1.00
9410;DHT22;4744;52.576;13.568;2023-09-30T05:45:23;12.80;1.00
9410;DHT22;4744;52.576;13.568;2023-09-30T05:47:52;12.80;1.00
9410;DHT22;4744;52.576;13.568;2023-09-30T05:50:19;12.90;1.00
9410;DHT22;4744;52.576;13.568;2023-09-30T05:52:50;12.90;1.00
9410;DHT22;4744;52.576;13.568;2023-09-30T05:55:17;13.00;1.00
9410;DHT22;4744;52.576;13.568;2023-09-30T05:57:46;13.00;1.00
9410;DHT22;4744;52.576;13.568;2023-09-30T06:00:15;13.00;1.00
9410;DHT22;4744;52.576;13.568;2023-09-30T06:02:46;13.10;1.00
9410;DHT22;4744;52.576;13.568;2023-09-30T06:05:13;13.10;1.00
9410;DHT22;4744;52.576;13.568;2023-09-30T06:07:41;13.20;1.00
9410;DHT22;4744;52.576;13.568;2023-09-30T06:10:11;13.20;1.00
9410;DHT22;4744;52.576;13.568;2023-09-30T06:12:44;13.30;1.00
9410;DHT22;4744;52.576;13.568;2023-09-30T06:15:12;13.40;1.00
9410;DHT22;4744;52.576;13.568;2023-09-30T06:17:40;13.40;1.00
9410;DHT22;4744;52.576;13.568;2023-09-30T06:20:08;13.50;1.00
9410;DHT22;4744;52.576;13.568;2023-09-30T06:22:41;13.60;1.00
9410;DHT22;4744;52.576;13.568;2023-09-30T06:25:09;13.70;1.00
9410;DHT22;4744;52.576;13.568;2023-09-30T06:27:36;13.80;1.00
9410;DHT22;4744;52.576;13.568;2023-09-30T06:30:05;13.90;1.00
9410;DHT22;4744;52.576;13.568;2023-09-30T06:32:32;14.00;1.00
9410;DHT22;4744;52.576;13.568;2023-09-30T06:35:02;14.10;1.00
9410;DHT22;4744;52.576;13.568;2023-09-30T06:37:29;14.10;1.00
9410;DHT22;4744;52.576;13.568;2023-09-30T06:39:56;14.10;1.00
9410;DHT22;4744;52.576;13.568;2023-09-30T06:42:24;14.10;1.00
9410;DHT22;4744;52.576;13.568;2023-09-30T06:44:53;14.10;1.00
9410;DHT22;4744;52.576;13.568;2023-09-30T06:47:20;14.00;1.00
9410;DHT22;4744;52.576;13.568;2023-09-30T06:49:47;14.00;1.00
9410;DHT22;4744;52.576;13.568;2023-09-30T06:52:15;14.00;1.00
9410;DHT22;4744;52.576;13.568;2023-09-30T06:54:42;14.00;1.00
9410;DHT22;4744;52.576;13.568;2023-09-30T06:57:09;14.00;1.00
9410;DHT22;4744;52.576;13.568;2023-09-30T06:59:36;14.10;1.00
9410;DHT22;4744;52.576;13.568;2023-09-30T07:02:04;14.20;1.00
9410;DHT22;4744;52.576;13.568;2023-09-30T07:04:32;14.30;1.00
9410;DHT22;4744;52.576;13.568;2023-09-30T07:06:59;14.40;1.00
9410;DHT22;4744;52.576;13.568;2023-09-30T07:09:27;14.50;1.00
9410;DHT22;4744;52.576;13.568;2023-09-30T07:11:54;14.70;1.00
9410;DHT22;4744;52.576;13.568;2023-09-30T07:14:21;14.80;1.00
9410;DHT22;4744;52.576;13.568;2023-09-30T07:16:48;14.90;1.00
9410;DHT22;4744;52.576;13.568;2023-09-30T07:19:14;15.00;1.00
9410;DHT22;4744;52.576;13.568;2023-09-30T07:21:41;15.00;1.00
9410;DHT22;4744;52.576;13.568;2023-09-30T07:24:08;15.00;1.00
9410;DHT22;4744;52.576;13.568;2023-09-30T07:26:37;15.00;1.00
9410;DHT22;4744;52.576;13.568;2023-09-30T07:29:04;15.10;1.00
9410;DHT22;4744;52.576;13.568;2023-09-30T07:31:34;15.10;1.00
9410;DHT22;4744;52.576;13.568;2023-09-30T07:34:01;15.20;1.00
9410;DHT22;4744;52.576;13.568;2023-09-30T07:36:28;15.10;1.00
9410;DHT22;4744;52.576;13.568;2023-09-30T07:38:55;15.10;1.00
9410;DHT22;4744;52.576;13.568;2023-09-30T07:41:22;15.10;1.00
9410;DHT22;4744;52.576;13.568;2023-09-30T07:43:51;15.10;1.00
9410;DHT22;4744;52.576;13.568;2023-09-30T07:46:18;15.20;1.00
9410;DHT22;4744;52.576;13.568;2023-09-30T07:48:45;15.30;1.00
9410;DHT22;4744;52.576;13.568;2023-09-30T07:51:15;15.30;1.00
9410;DHT22;4744;52.576;13.568;2023-09-30T07:53:42;15.40;1.00
9410;DHT22;4744;52.576;13.568;2023-09-30T07:56:09;15.40;1.00
9410;DHT22;4744;52.576;13.568;2023-09-30T07:58:35;15.40;1.00
9410;DHT22;4744;52.576;13.568;2023-09-30T08:01:04;15.40;1.00
9410;DHT22;4744;52.576;13.568;2023-09-30T08:03:32;15.50;1.00
9410;DHT22;4744;52.576;13.568;2023-09-30T08:06:00;15.50;1.00
9410;DHT22;4744;52.576;13.568;2023-09-30T08:08:27;15.50;1.00
9410;DHT22;4744;52.576;13.568;2023-09-30T08:10:55;15.30;1.00
9410;DHT22;4744;52.576;13.568;2023-09-30T08:13:22;15.30;1.00
9410;DHT22;4744;52.576;13.568;2023-09-30T08:15:49;15.30;1.00
9410;DHT22;4744;52.576;13.568;2023-09-30T08:18:18;15.20;1.00
9410;DHT22;4744;52.576;13.568;2023-09-30T08:20:45;15.20;1.00
9410;DHT22;4744;52.576;13.568;2023-09-30T08:23:12;15.20;1.00
9410;DHT22;4744;52.576;13.568;2023-09-30T08:25:39;15.20;1.00
9410;DHT22;4744;52.576;13.568;2023-09-30T08:28:06;15.20;1.00
9410;DHT22;4744;52.576;13.568;2023-09-30T08:30:36;15.30;1.00
9410;DHT22;4744;52.576;13.568;2023-09-30T08:33:03;15.40;1.00
9410;DHT22;4744;52.576;13.568;2023-09-30T08:35:36;15.50;1.00
9410;DHT22;4744;52.576;13.568;2023-09-30T08:38:03;15.60;1.00
9410;DHT22;4744;52.576;13.568;2023-09-30T08:40:31;15.70;1.00
9410;DHT22;4744;52.576;13.568;2023-09-30T08:42:58;15.80;1.00
9410;DHT22;4744;52.576;13.568;2023-09-30T08:45:28;15.90;1.00
9410;DHT22;4744;52.576;13.568;2023-09-30T08:47:55;16.00;1.00
9410;DHT22;4744;52.576;13.568;2023-09-30T08:50:22;16.20;1.00
9410;DHT22;4744;52.576;13.568;2023-09-30T08:52:51;16.30;1.00
9410;DHT22;4744;52.576;13.568;2023-09-30T08:55:18;16.30;1.00
9410;DHT22;4744;52.576;13.568;2023-09-30T08:57:46;16.40;1.00
9410;DHT22;4744;52.576;13.568;2023-09-30T09:00:15;16.50;1.00
9410;DHT22;4744;52.576;13.568;2023-09-30T09:02:42;17.10;1.00
9410;DHT22;4744;52.576;13.568;2023-09-30T09:05:09;17.60;1.00
9410;DHT22;4744;52.576;13.568;2023-09-30T09:07:36;17.90;1.00
9410;DHT22;4744;52.576;13.568;2023-09-30T09:10:06;18.00;1.00
9410;DHT22;4744;52.576;13.568;2023-09-30T09:12:34;18.10;1.00
9410;DHT22;4744;52.576;13.568;2023-09-30T09:15:02;18.00;1.00
9410;DHT22;4744;52.576;13.568;2023-09-30T09:17:42;17.90;1.00
9410;DHT22;4744;52.576;13.568;2023-09-30T09:20:11;17.90;1.00
9410;DHT22;4744;52.576;13.568;2023-09-30T09:22:40;17.90;1.00
9410;DHT22;4744;52.576;13.568;2023-09-30T09:25:09;18.00;1.00
9410;DHT22;4744;52.576;13.568;2023-09-30T09:27:37;18.10;1.00
9410;DHT22;4744;52.576;13.568;2023-09-30T09:30:17;18.10;1.00
9410;DHT22;4744;52.576;13.568;2023-09-30T09:32:55;18.60;1.00
9410;DHT22;4744;52.576;13.568;2023-09-30T09:35:24;19.10;1.00
9410;DHT22;4744;52.576;13.568;2023-09-30T09:37:58;19.70;1.00
9410;DHT22;4744;52.576;13.568;2023-09-30T09:40:28;20.60;1.00
9410;DHT22;4744;52.576;13.568;2023-09-30T09:42:56;21.40;1.00
9410;DHT22;4744;52.576;13.568;2023-09-30T09:45:24;21.30;1.00
9410;DHT22;4744;52.576;13.568;2023-09-30T09:47:51;21.20;1.00
9410;DHT22;4744;52.576;13.568;2023-09-30T09:50:19;21.40;1.00
9410;DHT22;4744;52.576;13.568;2023-09-30T09:52:49;22.00;1.00
9410;DHT22;4744;52.576;13.568;2023-09-30T09:55:17;22.80;1.00
9410;DHT22;4744;52.576;13.568;2023-09-30T09:57:46;23.70;1.00
9410;DHT22;4744;52.576;13.568;2023-09-30T10:00:17;24.30;1.00
9410;DHT22;4744;52.576;13.568;2023-09-30T10:02:44;24.20;1.00
9410;DHT22;4744;52.576;13.568;2023-09-30T10:05:13;23.80;1.00
9410;DHT22;4744;52.576;13.568;2023-09-30T10:07:44;23.00;1.00
9410;DHT22;4744;52.576;13.568;2023-09-30T10:10:16;22.10;1.00
9410;DHT22;4744;52.576;13.568;2023-09-30T10:12:44;21.50;1.00
9410;DHT22;4744;52.576;13.568;2023-09-30T10:15:38;21.00;1.00
9410;DHT22;4744;52.576;13.568;2023-09-30T10:18:09;20.30;1.00
9410;DHT22;4744;52.576;13.568;2023-09-30T10:20:38;19.90;1.00
9410;DHT22;4744;52.576;13.568;2023-09-30T10:23:21;19.80;1.00
9410;DHT22;4744;52.576;13.568;2023-09-30T10:25:48;19.80;1.00
9410;DHT22;4744;52.576;13.568;2023-09-30T10:28:36;20.00;1.00
9410;DHT22;4744;52.576;13.568;2023-09-30T10:31:18;20.10;1.00
9410;DHT22;4744;52.576;13.568;2023-09-30T10:34:22;20.20;1.00
9410;DHT22;4744;52.576;13.568;2023-09-30T10:36:49;20.20;1.00
9410;DHT22;4744;52.576;13.568;2023-09-30T10:39:54;20.40;1.00
9410;DHT22;4744;52.576;13.568;2023-09-30T10:42:44;20.70;1.00
9410;DHT22;4744;52.576;13.568;2023-09-30T10:45:44;20.70;1.00
9410;DHT22;4744;52.576;13.568;2023-09-30T10:48:35;20.90;1.00
9410;DHT22;4744;52.576;13.568;2023-09-30T10:51:11;20.80;1.00
9410;DHT22;4744;52.576;13.568;2023-09-30T10:53:42;20.30;1.00
9410;DHT22;4744;52.576;13.568;2023-09-30T10:56:10;20.20;1.00
9410;DHT22;4744;52.576;13.568;2023-09-30T10:58:41;20.40;1.00
9410;DHT22;4744;52.576;13.568;2023-09-30T11:01:08;20.60;1.00
9410;DHT22;4744;52.576;13.568;2023-09-30T11:03:37;20.70;1.00
9410;DHT22;4744;52.576;13.568;2023-09-30T11:06:04;20.80;1.00
9410;DHT22;4744;52.576;13.568;2023-09-30T11:08:32;20.90;1.00
9410;DHT22;4744;52.576;13.568;2023-09-30T11:11:00;20.70;1.00
9410;DHT22;4744;52.576;13.568;2023-09-30T11:13:32;20.80;1.00
9410;DHT22;4744;52.576;13.568;2023-09-30T11:16:01;20.90;1.00
9410;DHT22;4744;52.576;13.568;2023-09-30T11:18:29;20.90;1.00
9410;DHT22;4744;52.576;13.568;2023-09-30T11:21:06;20.70;1.00
9410;DHT22;4744;52.576;13.568;2023-09-30T11:23:33;20.60;1.00
9410;DHT22;4744;52.576;13.568;2023-09-30T11:26:01;20.60;1.00
9410;DHT22;4744;52.576;13.568;2023-09-30T11:28:36;20.50;1.00
9410;DHT22;4744;52.576;13.568;2023-09-30T11:31:09;20.30;1.00
9410;DHT22;4744;52.576;13.568;2023-09-30T11:33:53;20.00;1.00
9410;DHT22;4744;52.576;13.568;2023-09-30T11:36:23;19.90;1.00
9410;DHT22;4744;52.576;13.568;2023-09-30T11:38:51;19.70;1.00
9410;DHT22;4744;52.576;13.568;2023-09-30T11:41:19;19.70;1.00
9410;DHT22;4744;52.576;13.568;2023-09-30T11:44:04;19.80;1.00
9410;DHT22;4744;52.576;13.568;2023-09-30T11:46:33;19.80;1.00
9410;DHT22;4744;52.576;13.568;2023-09-30T11:49:01;19.90;1.00
9410;DHT22;4744;52.576;13.568;2023-09-30T11:51:30;19.80;1.00
9410;DHT22;4744;52.576;13.568;2023-09-30T11:53:57;19.80;1.00
9410;DHT22;4744;52.576;13.568;2023-09-30T11:56:27;19.80;1.00
9410;DHT22;4744;52.576;13.568;2023-09-30T11:58:56;19.70;1.00
9410;DHT22;4744;52.576;13.568;2023-09-30T12:01:24;19.70;1.00
9410;DHT22;4744;52.576;13.568;2023-09-30T12:03:52;19.70;1.00
9410;DHT22;4744;52.576;13.568;2023-09-30T12:06:30;19.80;1.00
9410;DHT22;4744;52.576;13.568;2023-09-30T12:08:57;19.70;1.00
9410;DHT22;4744;52.576;13.568;2023-09-30T12:11:24;19.70;1.00
9410;DHT22;4744;52.576;13.568;2023-09-30T12:13:51;19.80;1.00
9410;DHT22;4744;52.576;13.568;2023-09-30T12:16:18;19.90;1.00
9410;DHT22;4744;52.576;13.568;2023-09-30T12:18:46;19.90;1.00
9410;DHT22;4744;52.576;13.568;2023-09-30T12:21:13;20.00;1.00
9410;DHT22;4744;52.576;13.568;2023-09-30T12:23:46;20.00;1.00
9410;DHT22;4744;52.576;13.568;2023-09-30T12:26:14;20.00;1.00
9410;DHT22;4744;52.576;13.568;2023-09-30T12:28:43;20.00;1.00
9410;DHT22;4744;52.576;13.568;2023-09-30T12:31:10;19.90;1.00
9410;DHT22;4744;52.576;13.568;2023-09-30T12:33:37;19.90;1.00
9410;DHT22;4744;52.576;13.568;2023-09-30T12:36:04;20.00;1.00
9410;DHT22;4744;52.576;13.568;2023-09-30T12:38:31;20.10;1.00
9410;DHT22;4744;52.576;13.568;2023-09-30T12:40:59;20.00;1.00
9410;DHT22;4744;52.576;13.568;2023-09-30T12:43:26;20.10;1.00
9410;DHT22;4744;52.576;13.568;2023-09-30T12:45:53;20.10;1.00
9410;DHT22;4744;52.576;13.568;2023-09-30T12:48:20;19.90;1.00
9410;DHT22;4744;52.576;13.568;2023-09-30T12:50:47;20.00;1.00
9410;DHT22;4744;52.576;13.568;2023-09-30T12:53:14;20.00;1.00
9410;DHT22;4744;52.576;13.568;2023-09-30T12:55:41;20.00;1.00
9410;DHT22;4744;52.576;13.568;2023-09-30T12:58:10;20.10;1.00
9410;DHT22;4744;52.576;13.568;2023-09-30T13:00:37;20.20;1.00
9410;DHT22;4744;52.576;13.568;2023-09-30T13:03:04;20.20;1.00
9410;DHT22;4744;52.576;13.568;2023-09-30T13:05:33;20.30;1.00
9410;DHT22;4744;52.576;13.568;2023-09-30T13:08:00;20.30;1.00
9410;DHT22;4744;52.576;13.568;2023-09-30T13:10:27;20.40;1.00
9410;DHT22;4744;52.576;13.568;2023-09-30T13:12:55;20.50;1.00
9410;DHT22;4744;52.576;13.568;2023-09-30T13:15:24;20.50;1.00
9410;DHT22;4744;52.576;13.568;2023-09-30T13:17:51;20.50;1.00
9410;DHT22;4744;52.576;13.568;2023-09-30T13:20:19;20.50;1.00
9410;DHT22;4744;52.576;13.568;2023-09-30T13:22:46;20.50;1.00
9410;DHT22;4744;52.576;13.568;2023-09-30T13:25:13;20.50;1.00
9410;DHT22;4744;52.576;13.568;2023-09-30T13:27:41;20.60;1.00
9410;DHT22;4744;52.576;13.568;2023-09-30T13:30:09;20.70;1.00
9410;DHT22;4744;52.576;13.568;2023-09-30T13:32:38;20.80;1.00
9410;DHT22;4744;52.576;13.568;2023-09-30T13:35:06;20.50;1.00
9410;DHT22;4744;52.576;13.568;2023-09-30T13:37:34;20.30;1.00
9410;DHT22;4744;52.576;13.568;2023-09-30T13:40:03;20.20;1.00
9410;DHT22;4744;52.576;13.568;2023-09-30T13:42:33;19.90;1.00
9410;DHT22;4744;52.576;13.568;2023-09-30T13:45:00;19.60;1.00
9410;DHT22;4744;52.576;13.568;2023-09-30T13:47:27;19.50;1.00
9410;DHT22;4744;52.576;13.568;2023-09-30T13:49:55;19.30;1.00
9410;DHT22;4744;52.576;13.568;2023-09-30T13:52:23;19.20;1.00
9410;DHT22;4744;52.576;13.568;2023-09-30T13:54:50;19.10;1.00
9410;DHT22;4744;52.576;13.568;2023-09-30T13:57:17;19.00;1.00
9410;DHT22;4744;52.576;13.568;2023-09-30T13:59:46;19.10;1.00
9410;DHT22;4744;52.576;13.568;2023-09-30T14:02:14;19.10;1.00
9410;DHT22;4744;52.576;13.568;2023-09-30T14:04:41;19.10;1.00
9410;DHT22;4744;52.576;13.568;2023-09-30T14:07:09;19.10;1.00
9410;DHT22;4744;52.576;13.568;2023-09-30T14:09:36;19.00;1.00
9410;DHT22;4744;52.576;13.568;2023-09-30T14:12:03;19.10;1.00
9410;DHT22;4744;52.576;13.568;2023-09-30T14:14:31;19.10;1.00
9410;DHT22;4744;52.576;13.568;2023-09-30T14:16:59;19.20;1.00
9410;DHT22;4744;52.576;13.568;2023-09-30T14:19:33;19.30;1.00
9410;DHT22;4744;52.576;13.568;2023-09-30T14:22:00;19.40;1.00
9410;DHT22;4744;52.576;13.568;2023-09-30T14:24:28;19.40;1.00
9410;DHT22;4744;52.576;13.568;2023-09-30T14:26:55;19.50;1.00
9410;DHT22;4744;52.576;13.568;2023-09-30T14:29:22;19.50;1.00
9410;DHT22;4744;52.576;13.568;2023-09-30T14:31:50;19.60;1.00
9410;DHT22;4744;52.576;13.568;2023-09-30T14:34:20;19.60;1.00
9410;DHT22;4744;52.576;13.568;2023-09-30T14:36:47;19.60;1.00
9410;DHT22;4744;52.576;13.568;2023-09-30T14:39:14;19.60;1.00
9410;DHT22;4744;52.576;13.568;2023-09-30T14:41:43;19.50;1.00
9410;DHT22;4744;52.576;13.568;2023-09-30T14:44:10;19.40;1.00
9410;DHT22;4744;52.576;13.568;2023-09-30T14:46:37;19.40;1.00
9410;DHT22;4744;52.576;13.568;2023-09-30T14:49:05;19.30;1.00
9410;DHT22;4744;52.576;13.568;2023-09-30T14:51:33;19.30;1.00
9410;DHT22;4744;52.576;13.568;2023-09-30T14:54:00;19.30;1.00
9410;DHT22;4744;52.576;13.568;2023-09-30T14:56:27;19.20;1.00
9410;DHT22;4744;52.576;13.568;2023-09-30T14:58:55;19.20;1.00
9410;DHT22;4744;52.576;13.568;2023-09-30T15:01:22;19.20;1.00
9410;DHT22;4744;52.576;13.568;2023-09-30T15:03:49;19.10;1.00
9410;DHT22;4744;52.576;13.568;2023-09-30T15:06:17;19.10;1.00
9410;DHT22;4744;52.576;13.568;2023-09-30T15:08:44;19.00;1.00
9410;DHT22;4744;52.576;13.568;2023-09-30T15:11:14;19.00;1.00
9410;DHT22;4744;52.576;13.568;2023-09-30T15:13:41;19.00;1.00
9410;DHT22;4744;52.576;13.568;2023-09-30T15:16:17;18.90;1.00
9410;DHT22;4744;52.576;13.568;2023-09-30T15:18:45;18.90;1.00
9410;DHT22;4744;52.576;13.568;2023-09-30T15:21:12;18.90;1.00
9410;DHT22;4744;52.576;13.568;2023-09-30T15:23:39;18.80;1.00
9410;DHT22;4744;52.576;13.568;2023-09-30T15:26:06;18.80;1.00
9410;DHT22;4744;52.576;13.568;2023-09-30T15:28:33;18.70;1.00
9410;DHT22;4744;52.576;13.568;2023-09-30T15:31:00;18.70;1.00
9410;DHT22;4744;52.576;13.568;2023-09-30T15:33:29;18.60;1.00
9410;DHT22;4744;52.576;13.568;2023-09-30T15:35:55;18.60;1.00
9410;DHT22;4744;52.576;13.568;2023-09-30T15:38:22;18.60;1.00
9410;DHT22;4744;52.576;13.568;2023-09-30T15:40:54;18.50;1.00
9410;DHT22;4744;52.576;13.568;2023-09-30T15:43:23;18.50;1.00
9410;DHT22;4744;52.576;13.568;2023-09-30T15:45:50;18.50;1.00
9410;DHT22;4744;52.576;13.568;2023-09-30T15:48:17;18.50;1.00
9410;DHT22;4744;52.576;13.568;2023-09-30T15:50:46;18.50;1.00
9410;DHT22;4744;52.576;13.568;2023-09-30T15:53:13;18.40;1.00
9410;DHT22;4744;52.576;13.568;2023-09-30T15:55:44;18.40;1.00
9410;DHT22;4744;52.576;13.568;2023-09-30T15:58:11;18.30;1.00
9410;DHT22;4744;52.576;13.568;2023-09-30T16:00:38;18.30;1.00
9410;DHT22;4744;52.576;13.568;2023-09-30T16:03:08;18.30;1.00
9410;DHT22;4744;52.576;13.568;2023-09-30T16:05:36;18.20;1.00
9410;DHT22;4744;52.576;13.568;2023-09-30T16:08:05;18.20;1.00
9410;DHT22;4744;52.576;13.568;2023-09-30T16:10:33;18.10;1.00